Time;durP1;ratioP1;P1;durP2;ratioP2;P2;SDS_P1;SDS_P2;PMS_P1;PMS_P2;Temp;Humidity;BMP_temperature;BMP_pressure;BME280_temperature;BME280_humidity;BME280_pressure;Samples;Min_cycle;Max_cycle;Signal;HPM_P1;HPM_P2
2021/09/30 00:02:24;;;;;;;8.68;3.97;;;;;;;8.89;87.90;101586.75;20906085;28;20461;-69
2021/09/30 00:12:32;;;;;;;4.30;1.33;;;;;;;8.81;88.12;101593.63;20904509;28;20044;-69
2021/09/30 00:33:05;;;;;;;6.80;2.80;;;;;;;8.66;88.33;101593.44;20904303;28;20053;-70
2021/09/30 00:53:41;;;;;;;8.55;3.70;;;;;;;8.40;88.15;101607.09;20903106;28;20045;-70
2021/09/30 01:26:07;;;;;;;5.03;1.60;;;;;;;8.06;88.54;101630.94;20901885;28;20119;-69
2021/09/30 01:46:11;;;;;;;3.97;1.50;;;;;;;7.80;88.88;101641.84;20917869;28;20098;-69
2021/09/30 03:08:31;;;;;;;5.90;1.70;;;;;;;7.22;88.94;101671.25;20910955;28;20149;-69
2021/09/30 03:28:38;;;;;;;7.55;2.40;;;;;;;7.06;89.33;101683.13;20909974;28;20045;-69
2021/09/30 03:38:40;;;;;;;6.13;2.08;;;;;;;7.00;89.17;101696.03;20908541;28;20052;-69
2021/09/30 03:48:51;;;;;;;8.43;2.00;;;;;;;7.00;89.71;101688.22;20907961;28;20391;-69
2021/09/30 03:59:19;;;;;;;6.90;2.35;;;;;;;6.89;89.69;101687.97;20906541;28;20479;-69
2021/09/30 04:09:27;;;;;;;4.38;2.00;;;;;;;6.81;89.53;101700.88;20905320;28;20102;-69
2021/09/30 04:19:29;;;;;;;4.15;1.85;;;;;;;6.74;90.11;101685.06;20906236;28;20049;-69
2021/09/30 04:29:30;;;;;;;4.53;1.50;;;;;;;6.66;89.85;101697.94;20905744;28;20465;-69
2021/09/30 04:39:32;;;;;;;7.75;2.10;;;;;;;6.63;90.13;101697.88;20917150;22;20122;-69
2021/09/30 04:49:34;;;;;;;5.38;1.77;;;;;;;6.65;90.38;101723.06;20904073;28;20057;-69
2021/09/30 04:59:36;;;;;;;4.22;1.63;;;;;;;6.68;90.29;101727.47;20902967;28;20184;-69
2021/09/30 05:09:38;;;;;;;5.10;1.70;;;;;;;6.66;90.44;101724.84;20902550;28;20037;-69
2021/09/30 05:19:40;;;;;;;6.55;1.90;;;;;;;6.72;89.77;101729.31;20901999;28;20079;-69
2021/09/30 05:29:46;;;;;;;6.43;2.30;;;;;;;6.73;90.04;101725.84;20902021;28;20041;-70
2021/09/30 05:39:48;;;;;;;6.40;1.85;;;;;;;6.66;90.25;101729.19;20901821;28;20052;-69
2021/09/30 05:49:50;;;;;;;7.95;2.40;;;;;;;6.77;90.23;101740.69;20903202;28;20111;-69
2021/09/30 05:59:52;;;;;;;11.15;4.03;;;;;;;6.96;90.19;101746.28;20901290;28;20049;-70
2021/09/30 06:20:14;;;;;;;8.38;2.70;;;;;;;7.22;88.96;101741.59;20910334;28;20049;-69
2021/09/30 06:30:20;;;;;;;8.77;3.38;;;;;;;7.37;89.19;101753.16;20914649;28;20044;-70
2021/09/30 06:40:22;;;;;;;9.38;2.95;;;;;;;7.61;88.89;101751.88;20913802;28;20075;-70
2021/09/30 06:50:25;;;;;;;5.25;2.20;;;;;;;7.94;87.93;101762.03;20912291;28;20095;-69
2021/09/30 07:00:28;;;;;;;6.28;2.25;;;;;;;8.21;87.65;101777.25;20912074;28;20041;-70
2021/09/30 07:10:30;;;;;;;5.75;2.20;;;;;;;8.42;87.43;101788.06;20811809;28;20045;-70
2021/09/30 07:20:31;;;;;;;8.77;2.28;;;;;;;8.72;86.38;101786.78;20793074;28;20544;-70
2021/09/30 07:30:33;;;;;;;5.78;2.22;;;;;;;9.05;84.98;101788.94;20826254;28;20049;-70
2021/09/30 07:40:36;;;;;;;5.22;1.83;;;;;;;9.40;83.60;101776.31;20784740;28;20053;-70
2021/09/30 07:50:41;;;;;;;4.13;1.58;;;;;;;9.96;81.96;101775.97;20744132;28;20050;-69
2021/09/30 08:00:43;;;;;;;5.40;1.50;;;;;;;10.55;79.09;101776.47;20743419;28;20115;-68
2021/09/30 08:10:45;;;;;;;8.98;1.40;;;;;;;11.04;76.34;101768.00;20750801;28;20115;-68
2021/09/30 08:20:47;;;;;;;3.47;1.50;;;;;;;11.49;74.88;101755.91;20822104;28;20053;-67
2021/09/30 08:30:50;;;;;;;2.83;1.17;;;;;;;11.68;73.67;101761.19;20821720;28;20038;-68
2021/09/30 08:40:52;;;;;;;7.15;1.40;;;;;;;12.15;71.62;101747.25;20821443;28;20052;-67
2021/09/30 08:50:54;;;;;;;3.40;1.20;;;;;;;12.73;70.61;101741.88;20821921;28;20045;-67
2021/09/30 09:00:58;;;;;;;5.65;1.05;;;;;;;12.48;69.25;101726.19;20821052;28;20498;-67
2021/09/30 09:11:02;;;;;;;4.65;1.08;;;;;;;12.61;69.24;101723.53;20819479;28;20037;-67
2021/09/30 09:21:36;;;;;;;4.45;1.20;;;;;;;13.19;68.12;101725.91;20765050;28;20042;-67
2021/09/30 09:31:44;;;;;;;2.05;0.88;;;;;;;13.01;66.63;101714.59;20738345;28;20424;-67
2021/09/30 09:41:46;;;;;;;6.28;0.93;;;;;;;12.98;62.18;101709.38;20736979;28;20057;-68
2021/09/30 09:51:52;;;;;;;7.68;1.20;;;;;;;13.03;63.14;101704.97;20741317;28;20054;-68
2021/09/30 10:01:53;;;;;;;4.75;0.75;;;;;;;13.00;62.75;101704.09;20751419;28;20100;-69
2021/09/30 10:11:56;;;;;;;5.18;0.90;;;;;;;13.18;62.04;101703.16;20768661;28;20468;-69
2021/09/30 10:21:58;;;;;;;5.03;1.00;;;;;;;13.89;60.90;101708.78;20833768;28;20060;-69
2021/09/30 10:32:01;;;;;;;6.38;0.95;;;;;;;14.17;57.24;101683.09;20831060;28;20045;-70
2021/09/30 10:42:05;;;;;;;8.15;1.52;;;;;;;14.20;56.27;101683.94;20829847;28;20049;-69
2021/09/30 10:52:25;;;;;;;4.97;1.02;;;;;;;14.30;55.81;101674.16;20828400;28;20049;-70
2021/09/30 11:02:26;;;;;;;5.88;0.80;;;;;;;14.31;53.12;101673.28;20828548;28;20072;-71
2021/09/30 11:12:28;;;;;;;4.10;0.80;;;;;;;14.24;50.97;101666.34;20800524;28;20050;-69
2021/09/30 11:22:31;;;;;;;6.97;1.67;;;;;;;14.38;50.44;101656.53;20747609;28;20169;-70
2021/09/30 11:32:32;;;;;;;4.90;0.80;;;;;;;14.77;52.44;101641.16;20744487;28;20054;-72
2021/09/30 11:42:40;;;;;;;3.17;0.82;;;;;;;14.07;51.67;101648.94;20744595;28;20046;-73
2021/09/30 11:52:42;;;;;;;6.13;0.80;;;;;;;13.76;54.58;101623.81;20742636;28;20111;-72
2021/09/30 12:02:59;;;;;;;5.80;0.75;;;;;;;14.23;51.39;101596.97;20752177;28;20182;-72
2021/09/30 12:13:20;;;;;;;2.15;0.60;;;;;;;15.13;50.38;101577.28;20791865;28;20053;-73
2021/09/30 12:23:23;;;;;;;5.60;1.05;;;;;;;15.59;47.45;101568.63;20822123;28;20075;-71
2021/09/30 12:33:30;;;;;;;4.15;1.00;;;;;;;15.56;46.98;101562.53;20821319;28;20057;-73
2021/09/30 12:43:34;;;;;;;4.80;0.57;;;;;;;14.79;48.25;101544.44;20821430;28;20053;-73
2021/09/30 12:53:45;;;;;;;3.30;0.70;;;;;;;15.24;47.97;101510.31;20821102;28;20095;-73
2021/09/30 13:04:07;;;;;;;2.22;0.93;;;;;;;15.38;46.24;101518.88;20819355;28;20050;-72
2021/09/30 13:14:14;;;;;;;3.00;0.68;;;;;;;15.85;46.32;101514.47;20783219;28;20061;-73
2021/09/30 13:24:17;;;;;;;3.55;0.60;;;;;;;15.40;47.12;101509.13;20739960;28;20045;-72
2021/09/30 13:34:19;;;;;;;4.00;0.88;;;;;;;15.09;48.64;101483.31;20752488;28;20527;-73
2021/09/30 13:44:21;;;;;;;2.80;0.60;;;;;;;15.23;47.04;101471.63;20752464;28;20046;-73
2021/09/30 13:54:23;;;;;;;5.28;0.80;;;;;;;15.19;47.14;101456.72;20752987;28;20057;-73
2021/09/30 14:04:25;;;;;;;4.68;0.60;;;;;;;15.22;47.56;101447.00;20778962;23;20392;-83
2021/09/30 14:14:26;;;;;;;5.82;0.90;;;;;;;15.10;48.82;101452.50;20846537;28;20135;-84
2021/09/30 14:24:30;;;;;;;3.65;0.75;;;;;;;15.29;45.09;101427.53;20840951;28;20076;-86
2021/09/30 14:34:32;;;;;;;4.47;0.80;;;;;;;15.31;47.77;101423.09;20832901;28;20099;-83
2021/09/30 14:44:35;;;;;;;2.08;0.50;;;;;;;15.08;46.39;101418.22;20834554;28;20506;-82
2021/09/30 14:54:37;;;;;;;3.45;0.63;;;;;;;15.26;47.85;101411.75;20833959;28;20050;-83
2021/09/30 15:04:39;;;;;;;3.88;0.80;;;;;;;15.41;48.04;101402.66;20832986;28;20045;-81
2021/09/30 15:14:40;;;;;;;6.95;0.65;;;;;;;15.36;45.95;101388.69;20835940;28;20049;-83
2021/09/30 15:24:42;;;;;;;3.13;0.60;;;;;;;15.30;47.61;101380.91;20833544;28;20045;-83
2021/09/30 15:34:45;;;;;;;4.50;0.63;;;;;;;15.27;45.97;101380.97;20828930;28;20103;-83
2021/09/30 15:44:49;;;;;;;5.13;0.70;;;;;;;15.17;48.71;101393.47;20840260;28;20510;-81
2021/09/30 15:54:52;;;;;;;4.63;0.63;;;;;;;15.23;48.10;101379.28;20826818;28;20054;-81
2021/09/30 16:04:54;;;;;;;2.63;0.68;;;;;;;15.02;50.02;101373.50;20863270;28;20046;-82
2021/09/30 16:14:59;;;;;;;4.40;1.10;;;;;;;14.79;48.76;101367.78;20858246;28;20057;-82
2021/09/30 16:25:04;;;;;;;4.32;0.82;;;;;;;14.53;52.60;101369.09;20842044;28;20048;-81
2021/09/30 16:35:07;;;;;;;3.53;0.75;;;;;;;14.30;52.07;101360.66;20838563;28;20565;-82
2021/09/30 16:45:09;;;;;;;3.42;1.27;;;;;;;13.97;58.48;101373.44;20838158;28;20454;-82
2021/09/30 16:55:14;;;;;;;5.63;1.52;;;;;;;13.51;61.99;101370.53;20833912;28;20241;-82
2021/09/30 17:05:20;;;;;;;4.25;1.20;;;;;;;13.12;64.74;101371.84;20830227;28;20060;-82
2021/09/30 17:15:24;;;;;;;3.75;0.90;;;;;;;12.66;64.89;101378.41;20835872;28;20509;-82
2021/09/30 17:25:28;;;;;;;5.18;1.25;;;;;;;12.36;66.62;101374.28;20858385;28;20514;-82
2021/09/30 17:35:30;;;;;;;6.45;1.50;;;;;;;11.96;70.94;101378.91;20840149;28;20570;-82
2021/09/30 17:45:32;;;;;;;6.72;1.83;;;;;;;11.72;71.58;101380.75;20834545;28;20049;-82
2021/09/30 17:55:34;;;;;;;4.95;1.70;;;;;;;11.46;73.37;101367.75;20860839;28;20054;-82
2021/09/30 18:05:36;;;;;;;9.13;2.75;;;;;;;11.33;74.96;101360.81;20857055;28;20052;-82
2021/09/30 18:15:38;;;;;;;7.97;3.38;;;;;;;11.19;76.27;101362.59;20851583;28;20180;-82
2021/09/30 18:25:43;;;;;;;10.25;4.70;;;;;;;11.01;76.90;101364.38;20856841;28;20057;-82
2021/09/30 18:35:46;;;;;;;9.32;4.90;;;;;;;10.74;77.16;101359.22;20849650;28;20049;-82
2021/09/30 18:45:49;;;;;;;12.33;4.97;;;;;;;10.45;76.98;101357.47;20851065;28;20428;-81
2021/09/30 18:55:51;;;;;;;16.65;8.55;;;;;;;10.31;77.81;101351.34;20852125;28;20053;-83
2021/09/30 19:05:56;;;;;;;10.15;5.45;;;;;;;10.11;79.04;101351.31;20873534;28;20403;-82
2021/09/30 19:15:58;;;;;;;14.07;6.23;;;;;;;9.96;80.72;101361.72;20950592;28;20110;-81
2021/09/30 19:26:03;;;;;;;15.35;6.18;;;;;;;9.76;81.05;101361.66;20958608;28;20172;-82
2021/09/30 19:36:06;;;;;;;12.27;5.75;;;;;;;9.62;81.92;101355.53;20903984;28;20099;-82
2021/09/30 19:46:09;;;;;;;11.10;4.72;;;;;;;9.56;82.65;101363.34;20921139;28;20053;-81
2021/09/30 19:56:16;;;;;;;8.18;3.22;;;;;;;9.29;83.02;101375.41;20918117;28;20091;-81
2021/09/30 20:06:23;;;;;;;7.47;2.75;;;;;;;9.05;83.93;101360.47;20897234;28;20044;-81
2021/09/30 20:16:26;;;;;;;7.95;2.30;;;;;;;8.95;84.58;101372.59;20913478;28;20557;-82
2021/09/30 20:26:29;;;;;;;7.28;1.98;;;;;;;8.78;83.87;101363.81;20906466;28;20053;-81
2021/09/30 20:36:32;;;;;;;4.95;2.00;;;;;;;8.66;84.59;101368.91;20925602;28;20044;-80
2021/09/30 20:46:33;;;;;;;6.13;1.92;;;;;;;8.53;84.30;101367.06;20912867;28;20045;-80
2021/09/30 20:56:36;;;;;;;4.80;2.13;;;;;;;8.44;84.95;101371.38;20894388;28;20048;-81
2021/09/30 21:06:38;;;;;;;6.68;2.50;;;;;;;8.29;84.71;101352.03;20894637;28;20209;-80
2021/09/30 21:16:41;;;;;;;8.35;2.53;;;;;;;8.25;84.76;101345.94;20911502;28;20045;-80
2021/09/30 21:26:42;;;;;;;5.57;2.15;;;;;;;8.16;84.85;101340.66;20892274;28;20052;-80
2021/09/30 21:36:45;;;;;;;5.07;2.00;;;;;;;7.95;84.52;101334.38;20908486;28;20186;-82
2021/09/30 21:46:46;;;;;;;7.40;1.98;;;;;;;7.76;86.34;101336.75;20893517;28;20049;-82
2021/09/30 21:56:48;;;;;;;5.93;2.22;;;;;;;7.82;85.57;101329.88;20926329;28;20041;-82
2021/09/30 22:06:50;;;;;;;6.03;2.67;;;;;;;7.97;84.83;101323.94;20923716;28;20437;-82
2021/09/30 22:16:54;;;;;;;9.70;2.40;;;;;;;7.73;86.07;101319.34;20908143;28;20131;-82
2021/09/30 22:26:56;;;;;;;7.65;2.63;;;;;;;7.77;85.82;101315.94;20905526;28;20053;-82
2021/09/30 22:36:58;;;;;;;7.80;2.55;;;;;;;7.73;86.34;101308.94;20901294;28;20053;-82
2021/09/30 22:47:01;;;;;;;5.40;2.63;;;;;;;7.62;85.75;101305.34;20916131;28;20095;-82
2021/09/30 22:57:03;;;;;;;5.00;2.53;;;;;;;7.65;85.63;101289.72;20911425;28;20407;-82
2021/09/30 23:07:05;;;;;;;5.28;2.33;;;;;;;7.49;85.61;101290.44;20904514;28;20117;-82
2021/09/30 23:17:06;;;;;;;7.20;2.40;;;;;;;7.28;86.54;101286.72;20923542;28;20045;-82
2021/09/30 23:27:08;;;;;;;6.38;3.08;;;;;;;7.15;86.50;101282.22;20923547;28;20099;-82
2021/09/30 23:37:10;;;;;;;6.97;2.28;;;;;;;7.24;87.19;101271.91;20919447;28;20049;-82
2021/09/30 23:47:12;;;;;;;5.38;2.30;;;;;;;7.19;86.47;101264.03;20919919;28;20637;-82
2021/09/30 23:57:14;;;;;;;6.90;2.50;;;;;;;7.05;86.78;101249.97;20902243;28;20045;-82
